createdAt,value
2022-10-15T00:00:49.580Z,26.43
2022-10-15T00:01:49.620Z,26.32
2022-10-15T00:02:49.553Z,26.53
2022-10-15T00:03:49.557Z,26.64
2022-10-15T00:04:49.526Z,26.43
2022-10-15T00:05:49.513Z,26.48
2022-10-15T00:06:49.496Z,26.48
2022-10-15T00:07:49.475Z,26.32
2022-10-15T00:08:49.467Z,26.37
2022-10-15T00:09:49.451Z,26.37
2022-10-15T00:10:49.439Z,26.43
2022-10-15T00:11:49.425Z,26.59
2022-10-15T00:12:49.448Z,26.48
2022-10-15T00:13:49.415Z,26.00
2022-10-15T00:14:49.404Z,26.48
2022-10-15T00:15:49.373Z,26.64
2022-10-15T00:16:49.409Z,26.37
2022-10-15T00:17:49.353Z,26.43
2022-10-15T00:18:49.330Z,26.05
2022-10-15T00:19:49.314Z,26.53
2022-10-15T00:20:49.309Z,26.05
2022-10-15T00:21:49.361Z,26.26
2022-10-15T00:22:49.279Z,26.43
2022-10-15T00:23:49.265Z,26.00
2022-10-15T00:24:49.252Z,26.05
2022-10-15T00:25:49.238Z,26.05
2022-10-15T00:26:49.226Z,26.05
2022-10-15T00:27:49.204Z,26.00
2022-10-15T00:28:49.247Z,26.00
2022-10-15T00:29:49.188Z,26.43
2022-10-15T00:30:49.195Z,26.00
2022-10-15T00:31:49.200Z,26.00
2022-10-15T00:32:49.138Z,26.10
2022-10-15T00:33:49.122Z,26.05
2022-10-15T00:34:49.115Z,26.00
2022-10-15T00:35:49.101Z,25.78
2022-10-15T00:36:49.091Z,26.05
2022-10-15T00:37:49.067Z,26.05
2022-10-15T00:38:49.065Z,26.10
2022-10-15T00:39:49.107Z,26.05
2022-10-15T00:40:49.035Z,26.05
2022-10-15T00:41:49.022Z,26.05
2022-10-15T00:42:49.009Z,25.89
2022-10-15T00:43:48.989Z,26.05
2022-10-15T00:44:48.980Z,26.21
2022-10-15T00:45:48.963Z,26.05
2022-10-15T00:46:49.126Z,26.05
2022-10-15T00:47:48.954Z,26.32
2022-10-15T00:48:48.919Z,26.05
2022-10-15T00:49:48.903Z,26.43
2022-10-15T00:50:48.895Z,25.94
2022-10-15T00:51:48.888Z,26.16
2022-10-15T00:52:48.869Z,26.16
2022-10-15T00:53:48.852Z,26.37
2022-10-15T00:54:48.837Z,26.05
2022-10-15T00:55:48.827Z,26.05
2022-10-15T00:56:48.820Z,26.21
2022-10-15T00:57:48.803Z,25.94
2022-10-15T00:58:48.795Z,26.43
2022-10-15T00:59:48.770Z,26.10
2022-10-15T01:00:48.830Z,26.00
2022-10-15T01:01:48.739Z,26.10
2022-10-15T01:02:48.753Z,26.10
2022-10-15T01:03:48.719Z,26.05
2022-10-15T01:04:48.714Z,26.21
2022-10-15T01:05:48.691Z,26.05
2022-10-15T01:06:48.679Z,26.10
2022-10-15T01:07:48.662Z,26.43
2022-10-15T01:08:48.659Z,26.05
2022-10-15T01:09:48.639Z,26.05
2022-10-15T01:10:48.624Z,26.05
2022-10-15T01:11:48.604Z,26.21
2022-10-15T01:12:48.601Z,26.10
2022-10-15T01:13:48.581Z,26.05
2022-10-15T01:14:48.571Z,26.05
2022-10-15T01:15:48.565Z,26.43
2022-10-15T01:16:48.538Z,26.48
2022-10-15T01:17:48.523Z,26.37
2022-10-15T01:18:48.536Z,26.53
2022-10-15T01:19:48.494Z,26.05
2022-10-15T01:20:48.487Z,26.59
2022-10-15T01:21:48.473Z,26.43
2022-10-15T01:22:48.461Z,26.00
2022-10-15T01:23:48.439Z,26.75
2022-10-15T01:24:48.436Z,26.48
2022-10-15T01:25:48.418Z,26.48
2022-10-15T01:26:48.408Z,26.05
2022-10-15T01:27:48.391Z,26.05
2022-10-15T01:28:48.455Z,26.00
2022-10-15T01:29:48.360Z,26.26
2022-10-15T01:30:48.349Z,26.00
2022-10-15T01:31:48.334Z,26.16
2022-10-15T01:32:48.325Z,26.05
2022-10-15T01:33:48.308Z,26.10
2022-10-15T01:34:48.323Z,26.05
2022-10-15T01:35:48.292Z,26.10
2022-10-15T01:36:48.271Z,26.05
2022-10-15T01:37:48.255Z,26.10
2022-10-15T01:38:48.247Z,26.05
2022-10-15T01:39:48.228Z,26.05
2022-10-15T01:40:48.215Z,26.05
2022-10-15T01:41:48.198Z,26.05
2022-10-15T01:42:48.185Z,26.26
2022-10-15T01:43:48.168Z,26.00
2022-10-15T01:44:48.160Z,26.16
2022-10-15T01:45:48.145Z,26.10
2022-10-15T01:46:48.134Z,26.00
2022-10-15T01:47:48.120Z,26.21
2022-10-15T01:48:48.108Z,26.16
2022-10-15T01:49:48.091Z,26.05
2022-10-15T01:50:48.168Z,26.10
2022-10-15T01:51:48.069Z,26.21
2022-10-15T01:52:48.057Z,26.16
2022-10-15T01:53:48.040Z,26.16
2022-10-15T01:54:48.028Z,26.10
2022-10-15T01:55:48.017Z,26.10
2022-10-15T01:56:47.998Z,26.10
2022-10-15T01:57:47.978Z,26.16
2022-10-15T01:58:47.967Z,26.05
2022-10-15T01:59:47.951Z,26.10
2022-10-15T02:00:47.979Z,26.10
2022-10-15T02:01:47.931Z,26.00
2022-10-15T02:02:47.921Z,26.00
2022-10-15T02:03:47.901Z,26.05
2022-10-15T02:04:47.887Z,26.00
2022-10-15T02:05:47.869Z,26.10
2022-10-15T02:06:47.881Z,26.00
2022-10-15T02:07:47.843Z,26.05
2022-10-15T02:08:47.830Z,26.00
2022-10-15T02:09:47.814Z,26.05
2022-10-15T02:10:47.807Z,26.00
2022-10-15T02:11:47.788Z,26.00
2022-10-15T02:12:47.782Z,26.43
2022-10-15T02:13:47.770Z,26.05
2022-10-15T02:14:47.755Z,26.05
2022-10-15T02:15:47.741Z,26.05
2022-10-15T02:16:47.727Z,26.00
2022-10-15T02:17:47.713Z,26.10
2022-10-15T02:18:47.704Z,26.10
2022-10-15T02:19:47.770Z,26.21
2022-10-15T02:20:47.673Z,26.05
2022-10-15T02:21:47.648Z,26.05
2022-10-15T02:22:47.659Z,26.21
2022-10-15T02:23:47.622Z,26.05
2022-10-15T02:24:51.648Z,26.00
2022-10-15T02:25:48.620Z,26.10
2022-10-15T02:26:47.589Z,26.21
2022-10-15T02:27:47.567Z,26.10
2022-10-15T02:28:47.609Z,26.00
2022-10-15T02:29:47.550Z,26.16
2022-10-15T02:30:47.537Z,26.05
2022-10-15T02:31:47.516Z,26.10
2022-10-15T02:32:47.502Z,26.10
2022-10-15T02:33:47.489Z,26.05
2022-10-15T02:34:47.482Z,26.10
2022-10-15T02:35:47.458Z,26.10
2022-10-15T02:36:47.453Z,26.05
2022-10-15T02:37:47.440Z,26.05
2022-10-15T02:38:47.450Z,26.05
2022-10-15T02:39:47.408Z,26.05
2022-10-15T02:40:47.396Z,25.94
2022-10-15T02:41:47.382Z,26.00
2022-10-15T02:42:47.375Z,25.83
2022-10-15T02:43:47.352Z,26.10
2022-10-15T02:44:47.338Z,26.16
2022-10-15T02:45:47.320Z,26.10
2022-10-15T02:46:47.317Z,26.05
2022-10-15T02:47:47.295Z,26.10
2022-10-15T02:48:47.287Z,26.21
2022-10-15T02:49:47.273Z,26.00
2022-10-15T02:50:47.258Z,26.05
2022-10-15T02:51:47.241Z,26.05
2022-10-15T02:52:47.233Z,26.05
2022-10-15T02:53:47.223Z,26.21
2022-10-15T02:54:47.236Z,26.00
2022-10-15T02:55:47.195Z,26.05
2022-10-15T02:56:47.188Z,26.05
2022-10-15T02:57:47.164Z,26.21
2022-10-15T02:58:47.156Z,26.05
2022-10-15T02:59:47.137Z,26.05
2022-10-15T03:00:47.196Z,26.10
2022-10-15T03:01:47.110Z,26.05
2022-10-15T03:02:47.097Z,26.10
2022-10-15T03:03:47.084Z,26.16
2022-10-15T03:04:47.074Z,25.94
2022-10-15T03:05:47.059Z,26.32
2022-10-15T03:06:47.041Z,26.05
2022-10-15T03:07:47.032Z,26.10
2022-10-15T03:08:47.013Z,26.10
2022-10-15T03:09:47.001Z,26.21
2022-10-15T03:10:47.007Z,26.05
2022-10-15T03:11:46.971Z,26.10
2022-10-15T03:12:46.961Z,25.94
2022-10-15T03:13:46.950Z,26.05
2022-10-15T03:14:46.931Z,26.00
2022-10-15T03:15:46.922Z,26.10
2022-10-15T03:16:46.900Z,26.05
2022-10-15T03:17:46.891Z,26.10
2022-10-15T03:18:46.877Z,26.16
2022-10-15T03:19:46.864Z,26.16
2022-10-15T03:20:46.848Z,26.10
2022-10-15T03:21:46.842Z,26.10
2022-10-15T03:22:46.820Z,25.46
2022-10-15T03:23:46.809Z,26.26
2022-10-15T03:24:46.798Z,26.05
2022-10-15T03:25:46.789Z,26.05
2022-10-15T03:26:46.799Z,26.00
2022-10-15T03:27:46.764Z,26.21
2022-10-15T03:28:46.787Z,26.00
2022-10-15T03:29:46.728Z,26.10
2022-10-15T03:30:46.721Z,26.05
2022-10-15T03:31:46.703Z,26.16
2022-10-15T03:32:46.702Z,26.05
2022-10-15T03:33:46.683Z,25.94
2022-10-15T03:34:46.663Z,26.10
2022-10-15T03:35:46.657Z,26.05
2022-10-15T03:36:46.629Z,25.46
2022-10-15T03:37:46.621Z,26.10
2022-10-15T03:38:46.610Z,26.05
2022-10-15T03:39:46.595Z,26.00
2022-10-15T03:40:46.591Z,26.00
2022-10-15T03:41:46.573Z,26.05
2022-10-15T03:42:46.575Z,25.46
2022-10-15T03:43:46.546Z,26.05
2022-10-15T03:44:46.532Z,25.83
2022-10-15T03:45:46.515Z,26.00
2022-10-15T03:46:46.503Z,26.00
2022-10-15T03:47:46.493Z,26.00
2022-10-15T03:48:46.474Z,26.05
2022-10-15T03:49:46.460Z,25.41
2022-10-15T03:50:46.458Z,26.05
2022-10-15T03:51:46.439Z,25.57
2022-10-15T03:52:46.424Z,25.46
2022-10-15T03:53:46.413Z,25.46
2022-10-15T03:54:46.395Z,25.62
2022-10-15T03:55:46.395Z,25.46
2022-10-15T03:56:46.368Z,26.10
2022-10-15T03:57:46.355Z,25.94
2022-10-15T03:58:46.361Z,25.46
2022-10-15T03:59:46.329Z,25.46
2022-10-15T04:00:46.362Z,26.21
2022-10-15T04:01:46.306Z,25.57
2022-10-15T04:02:46.288Z,25.51
2022-10-15T04:03:46.285Z,25.51
2022-10-15T04:04:46.259Z,25.51
2022-10-15T04:05:48.999Z,25.67
2022-10-15T04:06:46.232Z,26.05
2022-10-15T04:07:46.226Z,26.00
2022-10-15T04:08:46.290Z,25.51
2022-10-15T04:09:46.198Z,25.30
2022-10-15T04:10:46.180Z,26.10
2022-10-15T04:11:46.174Z,25.46
2022-10-15T04:12:46.156Z,25.78
2022-10-15T04:13:46.145Z,25.57
2022-10-15T04:14:46.150Z,25.46
2022-10-15T04:15:46.113Z,25.51
2022-10-15T04:16:46.110Z,25.46
2022-10-15T04:17:46.150Z,25.35
2022-10-15T04:18:46.078Z,25.46
2022-10-15T04:19:46.063Z,25.46
2022-10-15T04:20:46.043Z,25.51
2022-10-15T04:21:46.038Z,25.51
2022-10-15T04:22:46.015Z,25.46
2022-10-15T04:23:46.012Z,25.35
2022-10-15T04:24:45.991Z,25.51
2022-10-15T04:25:45.981Z,25.41
2022-10-15T04:26:46.014Z,25.51
2022-10-15T04:27:45.955Z,25.35
2022-10-15T04:28:46.037Z,25.46
2022-10-15T04:29:45.937Z,25.46
2022-10-15T04:30:45.934Z,25.51
2022-10-15T04:31:45.910Z,25.51
2022-10-15T04:32:45.889Z,25.41
2022-10-15T04:33:45.979Z,25.46
2022-10-15T04:34:45.861Z,25.73
2022-10-15T04:35:45.849Z,25.46
2022-10-15T04:36:45.834Z,26.10
2022-10-15T04:37:45.825Z,25.57
2022-10-15T04:38:45.802Z,25.35
2022-10-15T04:39:45.805Z,25.57
2022-10-15T04:40:45.785Z,25.57
2022-10-15T04:41:45.772Z,25.46
2022-10-15T04:42:45.757Z,25.51
2022-10-15T04:43:45.749Z,25.51
2022-10-15T04:44:45.727Z,25.51
2022-10-15T04:45:45.721Z,25.51
2022-10-15T04:46:45.718Z,25.30
2022-10-15T04:47:45.691Z,25.46
2022-10-15T04:48:45.671Z,25.78
2022-10-15T04:49:45.661Z,25.67
2022-10-15T04:50:45.643Z,25.51
2022-10-15T04:51:45.632Z,25.57
2022-10-15T04:52:45.625Z,25.57
2022-10-15T04:53:45.613Z,25.08
2022-10-15T04:54:45.597Z,25.51
2022-10-15T04:55:45.587Z,25.46
2022-10-15T04:56:45.574Z,25.46
2022-10-15T04:57:45.562Z,25.46
2022-10-15T04:58:45.643Z,25.46
2022-10-15T04:59:45.532Z,25.57
2022-10-15T05:00:45.517Z,25.51
2022-10-15T05:01:45.534Z,25.51
2022-10-15T05:02:45.534Z,25.46
2022-10-15T05:03:45.551Z,25.62
2022-10-15T05:04:45.460Z,25.57
2022-10-15T05:05:45.453Z,25.46
2022-10-15T05:06:45.436Z,25.46
2022-10-15T05:07:45.420Z,25.41
2022-10-15T05:08:45.413Z,25.57
2022-10-15T05:09:46.462Z,25.46
2022-10-15T05:10:45.383Z,25.19
2022-10-15T05:11:45.379Z,25.51
2022-10-15T05:12:45.354Z,25.46
2022-10-15T05:13:45.340Z,25.62
2022-10-15T05:14:45.324Z,25.62
2022-10-15T05:15:45.316Z,25.57
2022-10-15T05:16:45.352Z,25.51
2022-10-15T05:17:45.290Z,25.46
2022-10-15T05:18:45.318Z,25.41
2022-10-15T05:19:45.266Z,25.46
2022-10-15T05:20:45.254Z,25.51
2022-10-15T05:21:45.260Z,25.46
2022-10-15T05:22:45.222Z,25.67
2022-10-15T05:23:45.213Z,25.46
2022-10-15T05:24:45.191Z,25.46
2022-10-15T05:25:45.182Z,25.46
2022-10-15T05:26:45.168Z,25.51
2022-10-15T05:27:45.202Z,25.51
2022-10-15T05:28:45.212Z,25.41
2022-10-15T05:29:45.131Z,25.57
2022-10-15T05:30:45.113Z,25.51
2022-10-15T05:31:45.102Z,25.46
2022-10-15T05:32:45.091Z,25.57
2022-10-15T05:33:45.077Z,25.46
2022-10-15T05:34:45.081Z,25.62
2022-10-15T05:35:45.055Z,25.57
2022-10-15T05:36:45.035Z,24.98
2022-10-15T05:37:45.023Z,25.41
2022-10-15T05:38:45.007Z,25.51
2022-10-15T05:39:44.998Z,25.51
2022-10-15T05:40:44.978Z,25.46
2022-10-15T05:41:44.973Z,25.46
2022-10-15T05:42:45.043Z,25.41
2022-10-15T05:43:44.940Z,25.35
2022-10-15T05:44:44.929Z,25.46
2022-10-15T05:45:44.964Z,25.57
2022-10-15T05:46:44.899Z,25.83
2022-10-15T05:47:44.898Z,25.51
2022-10-15T05:48:44.870Z,25.46
2022-10-15T05:49:44.859Z,25.51
2022-10-15T05:50:44.864Z,25.41
2022-10-15T05:51:44.880Z,25.41
2022-10-15T05:52:44.821Z,25.46
2022-10-15T05:53:44.806Z,25.46
2022-10-15T05:54:44.793Z,25.73
2022-10-15T05:55:44.782Z,25.57
2022-10-15T05:56:44.766Z,25.46
2022-10-15T05:57:44.762Z,25.51
2022-10-15T05:58:44.742Z,25.46
2022-10-15T05:59:44.736Z,25.51
2022-10-15T06:00:44.717Z,25.46
2022-10-15T06:01:44.764Z,25.51
2022-10-15T06:02:44.808Z,25.51
2022-10-15T06:03:44.679Z,25.51
2022-10-15T06:04:44.657Z,25.51
2022-10-15T06:05:44.649Z,25.46
2022-10-15T06:06:44.654Z,25.57
2022-10-15T06:07:44.619Z,25.57
2022-10-15T06:08:44.608Z,25.46
2022-10-15T06:09:44.598Z,25.51
2022-10-15T06:10:44.629Z,25.46
2022-10-15T06:11:44.567Z,25.62
2022-10-15T06:12:44.566Z,25.41
2022-10-15T06:13:44.551Z,25.46
2022-10-15T06:14:44.533Z,25.08
2022-10-15T06:15:44.521Z,25.46
2022-10-15T06:16:44.501Z,25.46
2022-10-15T06:17:44.491Z,25.46
2022-10-15T06:18:44.473Z,25.46
2022-10-15T06:19:44.460Z,25.46
2022-10-15T06:20:44.448Z,25.46
2022-10-15T06:21:44.440Z,25.46
2022-10-15T06:22:44.449Z,25.62
2022-10-15T06:23:44.412Z,25.46
2022-10-15T06:24:44.394Z,25.41
2022-10-15T06:25:44.385Z,25.41
2022-10-15T06:26:44.419Z,25.46
2022-10-15T06:27:44.368Z,25.51
2022-10-15T06:28:44.464Z,25.51
2022-10-15T06:29:44.330Z,25.57
2022-10-15T06:30:44.312Z,25.08
2022-10-15T06:31:44.305Z,25.51
2022-10-15T06:32:44.284Z,25.62
2022-10-15T06:33:44.277Z,25.46
2022-10-15T06:34:44.258Z,25.51
2022-10-15T06:35:44.249Z,25.46
2022-10-15T06:36:44.238Z,25.62
2022-10-15T06:37:44.227Z,25.46
2022-10-15T06:38:44.370Z,25.46
2022-10-15T06:39:44.199Z,25.51
2022-10-15T06:40:44.180Z,25.51
2022-10-15T06:41:44.174Z,25.46
2022-10-15T06:42:44.166Z,25.41
2022-10-15T06:43:44.178Z,25.03
2022-10-15T06:44:44.135Z,25.24
2022-10-15T06:45:44.112Z,25.08
2022-10-15T06:46:44.098Z,25.46
2022-10-15T06:47:44.091Z,25.08
2022-10-15T06:48:44.076Z,25.03
2022-10-15T06:49:44.065Z,25.46
2022-10-15T06:50:44.055Z,25.51
2022-10-15T06:51:44.039Z,25.62
2022-10-15T06:52:44.018Z,25.57
2022-10-15T06:53:44.008Z,25.46
2022-10-15T06:54:44.016Z,25.14
2022-10-15T06:55:43.981Z,25.51
2022-10-15T06:56:43.963Z,25.62
2022-10-15T06:57:43.958Z,25.46
2022-10-15T06:58:43.937Z,25.14
2022-10-15T06:59:43.931Z,25.08
2022-10-15T07:00:43.917Z,25.08
2022-10-15T07:01:43.905Z,25.46
2022-10-15T07:02:43.889Z,25.57
2022-10-15T07:03:43.882Z,25.67
2022-10-15T07:04:43.868Z,25.46
2022-10-15T07:05:43.851Z,25.46
2022-10-15T07:06:43.838Z,25.51
2022-10-15T07:07:43.830Z,25.67
2022-10-15T07:08:43.812Z,25.62
2022-10-15T07:09:43.797Z,25.03
2022-10-15T07:10:43.814Z,25.46
2022-10-15T07:11:43.773Z,25.41
2022-10-15T07:12:43.754Z,25.03
2022-10-15T07:13:43.746Z,25.62
2022-10-15T07:14:43.727Z,25.46
2022-10-15T07:15:43.716Z,25.73
2022-10-15T07:16:43.801Z,25.03
2022-10-15T07:17:43.689Z,25.08
2022-10-15T07:18:43.674Z,25.30
2022-10-15T07:19:43.663Z,25.08
2022-10-15T07:20:43.649Z,25.46
2022-10-15T07:21:43.634Z,25.83
2022-10-15T07:22:43.625Z,25.51
2022-10-15T07:23:43.607Z,25.08
2022-10-15T07:24:43.594Z,25.08
2022-10-15T07:25:43.576Z,25.03
2022-10-15T07:26:43.586Z,25.14
2022-10-15T07:27:43.551Z,25.24
2022-10-15T07:28:43.616Z,25.46
2022-10-15T07:29:43.530Z,25.46
2022-10-15T07:30:43.520Z,25.46
2022-10-15T07:32:45.606Z,25.08
2022-10-15T07:33:43.478Z,25.41
2022-10-15T07:34:43.469Z,25.19
2022-10-15T07:35:43.451Z,25.46
2022-10-15T07:36:43.440Z,25.14
2022-10-15T07:37:43.424Z,25.08
2022-10-15T07:38:43.415Z,25.62
2022-10-15T07:39:43.395Z,24.92
2022-10-15T07:40:43.384Z,25.46
2022-10-15T07:41:43.368Z,25.51
2022-10-15T07:42:43.509Z,25.08
2022-10-15T07:43:43.342Z,25.14
2022-10-15T07:44:43.329Z,25.35
2022-10-15T07:45:43.311Z,25.08
2022-10-15T07:46:43.305Z,25.46
2022-10-15T07:47:43.288Z,25.24
2022-10-15T07:48:43.287Z,25.03
2022-10-15T07:49:43.265Z,25.08
2022-10-15T07:50:43.255Z,25.51
2022-10-15T07:51:43.237Z,24.87
2022-10-15T07:52:43.221Z,25.46
2022-10-15T07:53:43.207Z,25.14
2022-10-15T07:54:43.194Z,24.98
2022-10-15T07:55:43.180Z,25.08
2022-10-15T07:56:43.175Z,25.51
2022-10-15T07:57:43.160Z,25.46
2022-10-15T07:58:43.182Z,25.19
2022-10-15T07:59:43.130Z,25.08
2022-10-15T08:00:43.249Z,25.51
2022-10-15T08:01:45.886Z,25.08
2022-10-15T08:02:43.210Z,25.51
2022-10-15T08:03:43.078Z,25.51
2022-10-15T08:04:43.066Z,25.08
2022-10-15T08:05:43.045Z,25.51
2022-10-15T08:06:43.038Z,25.46
2022-10-15T08:07:43.017Z,25.51
2022-10-15T08:08:43.018Z,25.51
2022-10-15T08:09:43.038Z,25.46
2022-10-15T08:10:42.983Z,25.46
2022-10-15T08:11:42.965Z,25.62
2022-10-15T08:12:42.962Z,25.46
2022-10-15T08:13:42.943Z,25.51
2022-10-15T08:14:42.954Z,25.51
2022-10-15T08:15:42.915Z,25.19
2022-10-15T08:16:42.906Z,25.46
2022-10-15T08:17:42.888Z,25.62
2022-10-15T08:18:42.980Z,25.51
2022-10-15T08:19:42.864Z,25.51
2022-10-15T08:20:42.850Z,25.73
2022-10-15T08:21:45.246Z,25.46
2022-10-15T08:22:42.825Z,25.46
2022-10-15T08:23:42.806Z,25.62
2022-10-15T08:24:42.800Z,25.51
2022-10-15T08:25:42.784Z,25.41
2022-10-15T08:26:42.774Z,25.41
2022-10-15T08:27:42.758Z,25.24
2022-10-15T08:28:42.859Z,25.46
2022-10-15T08:29:42.762Z,25.51
2022-10-15T08:30:42.742Z,25.51
2022-10-15T08:31:42.700Z,25.35
2022-10-15T08:32:42.698Z,25.03
2022-10-15T08:33:42.679Z,25.57
2022-10-15T08:34:42.662Z,25.46
2022-10-15T08:35:42.647Z,25.41
2022-10-15T08:36:42.644Z,25.51
2022-10-15T08:37:42.623Z,25.46
2022-10-15T08:38:42.615Z,25.51
2022-10-15T08:39:42.596Z,25.08
2022-10-15T08:40:42.589Z,25.83
2022-10-15T08:41:42.570Z,25.51
2022-10-15T08:42:42.561Z,25.46
2022-10-15T08:43:42.547Z,25.14
2022-10-15T08:44:42.528Z,25.46
2022-10-15T08:45:42.512Z,25.51
2022-10-15T08:46:42.527Z,25.46
2022-10-15T08:47:42.488Z,25.46
2022-10-15T08:48:42.480Z,25.24
2022-10-15T08:49:42.461Z,25.08
2022-10-15T08:50:42.500Z,25.08
2022-10-15T08:51:42.439Z,25.46
2022-10-15T08:52:42.429Z,25.08
2022-10-15T08:53:42.409Z,25.51
2022-10-15T08:54:42.399Z,25.08
2022-10-15T08:55:42.385Z,25.14
2022-10-15T08:56:42.369Z,25.14
2022-10-15T08:57:42.351Z,25.08
2022-10-15T08:58:42.343Z,25.14
2022-10-15T08:59:42.326Z,25.08
2022-10-15T09:00:42.322Z,25.46
2022-10-15T09:01:42.309Z,25.41
2022-10-15T09:02:42.441Z,25.14
2022-10-15T09:03:42.278Z,25.08
2022-10-15T09:04:42.270Z,25.46
2022-10-15T09:05:42.249Z,25.24
2022-10-15T09:06:42.239Z,25.46
2022-10-15T09:07:42.223Z,25.67
2022-10-15T09:08:42.209Z,25.19
2022-10-15T09:09:42.193Z,25.19
2022-10-15T09:10:42.184Z,25.08
2022-10-15T09:11:42.167Z,25.03
2022-10-15T09:12:42.155Z,25.03
2022-10-15T09:13:42.175Z,25.14
2022-10-15T09:14:42.131Z,25.08
2022-10-15T09:15:42.112Z,24.71
2022-10-15T09:16:42.109Z,24.98
2022-10-15T09:17:42.094Z,25.08
2022-10-15T09:18:42.104Z,25.08
2022-10-15T09:19:42.064Z,25.14
2022-10-15T09:20:42.052Z,25.14
2022-10-15T09:21:42.037Z,25.14
2022-10-15T09:22:42.079Z,25.03
2022-10-15T09:23:42.015Z,25.46
2022-10-15T09:24:41.997Z,25.30
2022-10-15T09:25:41.979Z,25.14
2022-10-15T09:26:41.972Z,24.98
2022-10-15T09:27:41.966Z,25.08
2022-10-15T09:28:41.991Z,25.08
2022-10-15T09:29:41.932Z,25.03
2022-10-15T09:30:41.936Z,25.03
2022-10-15T09:31:41.918Z,25.03
2022-10-15T09:32:41.892Z,25.08
2022-10-15T09:33:41.875Z,25.24
2022-10-15T09:34:41.888Z,25.08
2022-10-15T09:35:41.848Z,25.08
2022-10-15T09:36:41.840Z,25.19
2022-10-15T09:37:41.829Z,25.08
2022-10-15T09:38:41.811Z,25.08
2022-10-15T09:39:41.796Z,25.14
2022-10-15T09:40:41.790Z,25.08
2022-10-15T09:41:41.771Z,25.08
2022-10-15T09:42:41.762Z,25.03
2022-10-15T09:43:41.748Z,25.03
2022-10-15T09:44:41.735Z,25.19
2022-10-15T09:45:41.719Z,25.14
2022-10-15T09:46:41.730Z,25.19
2022-10-15T09:47:41.692Z,25.08
2022-10-15T09:48:41.676Z,25.03
2022-10-15T09:49:41.663Z,25.24
2022-10-15T09:50:41.673Z,25.08
2022-10-15T09:51:41.634Z,24.92
2022-10-15T09:52:41.702Z,24.76
2022-10-15T09:53:41.623Z,25.08
2022-10-15T09:54:41.613Z,25.08
2022-10-15T09:55:41.730Z,25.14
2022-10-15T09:56:41.578Z,25.03
2022-10-15T09:57:41.562Z,25.08
2022-10-15T09:58:41.554Z,25.08
2022-10-15T09:59:41.538Z,25.19
2022-10-15T10:00:41.531Z,25.19
2022-10-15T10:01:41.592Z,25.03
2022-10-15T10:02:41.871Z,25.08
2022-10-15T10:03:41.481Z,25.08
2022-10-15T10:04:41.559Z,25.03
2022-10-15T10:05:41.480Z,25.08
2022-10-15T10:06:41.517Z,25.14
2022-10-15T10:07:41.608Z,25.14
2022-10-15T10:08:41.543Z,25.08
2022-10-15T10:09:41.883Z,25.08
2022-10-15T10:10:44.446Z,25.08
2022-10-15T10:11:41.368Z,25.03
2022-10-15T10:12:41.466Z,25.03
2022-10-15T10:13:41.349Z,25.08
2022-10-15T10:14:41.427Z,25.03
2022-10-15T10:15:41.348Z,25.14
2022-10-15T10:17:14.785Z,24.71
2022-10-15T10:18:14.769Z,25.08
2022-10-15T10:19:14.762Z,25.08
2022-10-15T10:20:14.883Z,25.14
2022-10-15T10:21:15.180Z,25.08
2022-10-15T10:22:14.742Z,25.14
2022-10-15T10:23:14.710Z,25.08
2022-10-15T10:24:14.692Z,25.14
2022-10-15T10:25:14.685Z,25.19
2022-10-15T10:26:15.409Z,25.19
2022-10-15T10:27:14.865Z,25.08
2022-10-15T10:28:14.652Z,24.81
2022-10-15T10:29:22.299Z,25.08
2022-10-15T10:30:15.908Z,24.71
2022-10-15T10:31:14.594Z,24.81
2022-10-15T10:32:14.585Z,25.03
2022-10-15T10:33:14.680Z,24.81
2022-10-15T10:34:14.720Z,24.71
2022-10-15T10:35:14.559Z,24.87
2022-10-15T10:36:14.531Z,24.60
2022-10-15T10:37:14.676Z,25.24
2022-10-15T10:38:14.516Z,24.76
2022-10-15T10:39:14.663Z,24.71
2022-10-15T10:40:14.537Z,24.71
2022-10-15T10:41:14.471Z,25.14
2022-10-15T10:42:14.775Z,24.71
2022-10-15T10:43:14.447Z,24.98
2022-10-15T10:44:14.562Z,24.71
2022-10-15T10:45:18.389Z,24.65
2022-10-15T10:46:14.710Z,24.71
2022-10-15T10:47:14.400Z,24.71
2022-10-15T10:48:14.505Z,24.92
2022-10-15T10:49:14.538Z,24.71
2022-10-15T10:50:14.553Z,24.65
2022-10-15T10:51:16.930Z,24.76
2022-10-15T10:52:14.745Z,24.76
2022-10-15T10:53:14.303Z,24.60
2022-10-15T10:54:14.318Z,24.65
2022-10-15T10:55:14.409Z,24.65
2022-10-15T10:56:14.261Z,24.71
2022-10-15T10:57:14.250Z,24.65
2022-10-15T10:58:14.231Z,24.71
2022-10-15T10:59:14.223Z,24.65
2022-10-15T11:00:14.206Z,24.76
2022-10-15T11:01:14.390Z,24.76
2022-10-15T11:02:14.187Z,24.60
2022-10-15T11:03:14.175Z,24.65
2022-10-15T11:04:17.102Z,24.76
2022-10-15T11:05:14.164Z,24.98
2022-10-15T11:06:14.139Z,24.60
2022-10-15T11:07:14.110Z,24.65
2022-10-15T11:08:14.110Z,24.71
2022-10-15T11:09:14.091Z,24.71
2022-10-15T11:10:14.107Z,24.65
2022-10-15T11:11:14.061Z,24.71
2022-10-15T11:12:14.050Z,24.76
2022-10-15T11:13:14.084Z,24.65
2022-10-15T11:14:14.023Z,24.65
2022-10-15T11:15:14.004Z,24.71
2022-10-15T11:16:13.996Z,24.76
2022-10-15T11:17:13.974Z,24.65
2022-10-15T11:18:13.962Z,24.81
2022-10-15T11:19:19.137Z,24.71
2022-10-15T11:21:13.921Z,24.76
2022-10-15T11:22:13.963Z,24.65
2022-10-15T11:23:13.899Z,24.76
2022-10-15T11:24:13.889Z,24.60
2022-10-15T11:25:13.873Z,24.71
2022-10-15T11:26:13.882Z,24.71
2022-10-15T11:27:13.845Z,24.71
2022-10-15T11:28:13.833Z,24.71
2022-10-15T11:29:13.830Z,24.71
2022-10-15T11:30:13.809Z,24.65
2022-10-15T11:31:13.843Z,24.71
2022-10-15T11:32:15.364Z,24.71
2022-10-15T11:33:15.218Z,25.08
2022-10-15T11:34:13.752Z,24.44
2022-10-15T11:35:20.072Z,24.98
2022-10-15T11:36:14.740Z,24.92
2022-10-15T11:37:13.712Z,24.71
2022-10-15T11:38:13.702Z,25.08
2022-10-15T11:39:13.688Z,24.76
2022-10-15T11:40:13.678Z,24.65
2022-10-15T11:41:13.661Z,24.60
2022-10-15T11:42:13.667Z,24.98
2022-10-15T11:43:13.624Z,24.65
2022-10-15T11:44:13.622Z,25.08
2022-10-15T11:45:13.606Z,25.14
2022-10-15T11:46:13.594Z,25.03
2022-10-15T11:47:13.578Z,25.14
2022-10-15T11:48:13.570Z,25.08
2022-10-15T11:49:13.546Z,25.03
2022-10-15T11:50:13.533Z,25.14
2022-10-15T11:51:13.525Z,25.03
2022-10-15T11:52:13.510Z,25.03
2022-10-15T11:53:13.491Z,25.03
2022-10-15T11:54:13.483Z,25.14
2022-10-15T11:55:13.467Z,25.08
2022-10-15T11:56:13.458Z,25.03
2022-10-15T11:57:13.445Z,25.19
2022-10-15T11:58:13.458Z,25.08
2022-10-15T11:59:13.418Z,25.24
2022-10-15T12:00:13.407Z,24.71
2022-10-15T12:01:13.390Z,25.08
2022-10-15T12:02:13.377Z,25.03
2022-10-15T12:03:13.414Z,25.08
2022-10-15T12:04:13.384Z,25.03
2022-10-15T12:05:13.337Z,24.81
2022-10-15T12:06:13.326Z,25.08
2022-10-15T12:07:13.312Z,25.14
2022-10-15T12:08:13.299Z,25.24
2022-10-15T12:09:13.283Z,24.71
2022-10-15T12:10:13.269Z,25.08
2022-10-15T12:11:13.255Z,25.08
2022-10-15T12:12:13.248Z,25.14
2022-10-15T12:13:13.224Z,25.46
2022-10-15T12:14:13.236Z,25.08
2022-10-15T12:15:13.197Z,24.81
2022-10-15T12:16:13.190Z,25.08
2022-10-15T12:17:13.171Z,25.08
2022-10-15T12:18:13.160Z,25.08
2022-10-15T12:19:13.144Z,24.71
2022-10-15T12:20:13.136Z,25.14
2022-10-15T12:21:13.122Z,25.08
2022-10-15T12:22:13.111Z,24.71
2022-10-15T12:23:13.097Z,24.71
2022-10-15T12:24:13.085Z,25.08
2022-10-15T12:25:13.067Z,25.08
2022-10-15T12:27:13.043Z,25.08
2022-10-15T12:28:13.033Z,25.08
2022-10-15T12:29:13.033Z,25.08
2022-10-15T12:30:13.159Z,24.98
2022-10-15T12:31:12.983Z,24.71
2022-10-15T12:32:12.973Z,24.71
2022-10-15T12:33:12.957Z,25.14
2022-10-15T12:34:12.950Z,25.08
2022-10-15T12:35:12.962Z,24.71
2022-10-15T12:36:12.922Z,24.71
2022-10-15T12:37:12.908Z,25.08
2022-10-15T12:38:12.899Z,24.65
2022-10-15T12:39:23.051Z,25.24
2022-10-15T12:40:13.895Z,24.71
2022-10-15T12:41:12.860Z,24.71
2022-10-15T12:42:12.848Z,24.65
2022-10-15T12:43:12.834Z,24.55
2022-10-15T12:44:12.901Z,24.55
2022-10-15T12:45:12.845Z,24.65
2022-10-15T12:46:12.824Z,25.08
2022-10-15T12:47:12.771Z,25.08
2022-10-15T12:48:12.761Z,24.60
2022-10-15T12:49:12.751Z,24.81
2022-10-15T12:50:12.832Z,24.76
2022-10-15T12:51:12.721Z,24.71
2022-10-15T12:52:12.758Z,24.71
2022-10-15T12:53:12.694Z,25.14
2022-10-15T12:54:12.677Z,24.71
2022-10-15T12:55:12.662Z,24.81
2022-10-15T12:56:12.652Z,25.14